sensor_id;sensor_type;location;lat;lon;timestamp;P1;durP1;ratioP1;P2;durP2;ratioP2
67554;SDS011;54385;53.516;49.456;2022-07-25T00:00:22;0.82;;;0.82;;
67554;SDS011;54385;53.516;49.456;2022-07-25T00:02:49;0.85;;;0.85;;
67554;SDS011;54385;53.516;49.456;2022-07-25T00:05:15;0.82;;;0.82;;
67554;SDS011;54385;53.516;49.456;2022-07-25T00:07:42;0.82;;;0.82;;
67554;SDS011;54385;53.516;49.456;2022-07-25T00:10:08;0.85;;;0.85;;
67554;SDS011;54385;53.516;49.456;2022-07-25T00:12:35;0.82;;;0.82;;
67554;SDS011;54385;53.516;49.456;2022-07-25T00:15:02;0.90;;;0.90;;
67554;SDS011;54385;53.516;49.456;2022-07-25T00:17:29;0.82;;;0.82;;
67554;SDS011;54385;53.516;49.456;2022-07-25T00:19:55;0.85;;;0.85;;
67554;SDS011;54385;53.516;49.456;2022-07-25T00:22:22;0.75;;;0.75;;
67554;SDS011;54385;53.516;49.456;2022-07-25T00:24:48;0.82;;;0.82;;
67554;SDS011;54385;53.516;49.456;2022-07-25T00:27:15;0.88;;;0.88;;
67554;SDS011;54385;53.516;49.456;2022-07-25T00:29:41;0.75;;;0.75;;
67554;SDS011;54385;53.516;49.456;2022-07-25T00:32:08;0.77;;;0.77;;
67554;SDS011;54385;53.516;49.456;2022-07-25T00:34:34;0.75;;;0.75;;
67554;SDS011;54385;53.516;49.456;2022-07-25T00:37:01;0.85;;;0.85;;
67554;SDS011;54385;53.516;49.456;2022-07-25T00:39:27;0.82;;;0.82;;
67554;SDS011;54385;53.516;49.456;2022-07-25T00:41:53;0.63;;;0.63;;
67554;SDS011;54385;53.516;49.456;2022-07-25T00:44:24;0.82;;;0.82;;
67554;SDS011;54385;53.516;49.456;2022-07-25T00:46:53;0.77;;;0.77;;
67554;SDS011;54385;53.516;49.456;2022-07-25T00:49:20;0.85;;;0.85;;
67554;SDS011;54385;53.516;49.456;2022-07-25T00:51:47;0.75;;;0.75;;
67554;SDS011;54385;53.516;49.456;2022-07-25T00:54:14;0.85;;;0.85;;
67554;SDS011;54385;53.516;49.456;2022-07-25T00:56:40;0.75;;;0.75;;
67554;SDS011;54385;53.516;49.456;2022-07-25T00:59:07;0.68;;;0.68;;
67554;SDS011;54385;53.516;49.456;2022-07-25T01:01:34;0.90;;;0.90;;
67554;SDS011;54385;53.516;49.456;2022-07-25T01:04:02;0.85;;;0.85;;
67554;SDS011;54385;53.516;49.456;2022-07-25T01:06:29;0.75;;;0.75;;
67554;SDS011;54385;53.516;49.456;2022-07-25T01:08:56;0.82;;;0.82;;
67554;SDS011;54385;53.516;49.456;2022-07-25T01:11:23;0.77;;;0.77;;
67554;SDS011;54385;53.516;49.456;2022-07-25T01:13:50;0.77;;;0.77;;
67554;SDS011;54385;53.516;49.456;2022-07-25T01:16:17;0.85;;;0.85;;
67554;SDS011;54385;53.516;49.456;2022-07-25T01:18:44;0.82;;;0.82;;
67554;SDS011;54385;53.516;49.456;2022-07-25T01:21:10;0.90;;;0.90;;
67554;SDS011;54385;53.516;49.456;2022-07-25T01:23:36;0.82;;;0.82;;
67554;SDS011;54385;53.516;49.456;2022-07-25T01:26:03;0.82;;;0.82;;
67554;SDS011;54385;53.516;49.456;2022-07-25T01:28:29;0.82;;;0.82;;
67554;SDS011;54385;53.516;49.456;2022-07-25T01:30:56;0.75;;;0.75;;
67554;SDS011;54385;53.516;49.456;2022-07-25T01:33:22;0.85;;;0.85;;
67554;SDS011;54385;53.516;49.456;2022-07-25T01:35:49;0.82;;;0.82;;
67554;SDS011;54385;53.516;49.456;2022-07-25T01:38:15;0.73;;;0.73;;
67554;SDS011;54385;53.516;49.456;2022-07-25T01:40:42;0.80;;;0.80;;
67554;SDS011;54385;53.516;49.456;2022-07-25T01:43:09;0.82;;;0.82;;
67554;SDS011;54385;53.516;49.456;2022-07-25T01:45:36;0.85;;;0.85;;
67554;SDS011;54385;53.516;49.456;2022-07-25T01:48:02;0.85;;;0.85;;
67554;SDS011;54385;53.516;49.456;2022-07-25T01:50:29;0.77;;;0.77;;
67554;SDS011;54385;53.516;49.456;2022-07-25T01:52:55;0.85;;;0.85;;
67554;SDS011;54385;53.516;49.456;2022-07-25T01:55:22;0.82;;;0.82;;
67554;SDS011;54385;53.516;49.456;2022-07-25T01:57:48;0.82;;;0.82;;
67554;SDS011;54385;53.516;49.456;2022-07-25T02:00:15;0.77;;;0.77;;
67554;SDS011;54385;53.516;49.456;2022-07-25T02:02:42;0.82;;;0.82;;
67554;SDS011;54385;53.516;49.456;2022-07-25T02:05:10;0.75;;;0.75;;
67554;SDS011;54385;53.516;49.456;2022-07-25T02:07:37;0.77;;;0.77;;
67554;SDS011;54385;53.516;49.456;2022-07-25T02:10:04;0.75;;;0.75;;
67554;SDS011;54385;53.516;49.456;2022-07-25T02:12:31;0.82;;;0.82;;
67554;SDS011;54385;53.516;49.456;2022-07-25T02:14:58;0.93;;;0.93;;
67554;SDS011;54385;53.516;49.456;2022-07-25T02:17:24;0.85;;;0.85;;
67554;SDS011;54385;53.516;49.456;2022-07-25T02:19:51;0.68;;;0.68;;
67554;SDS011;54385;53.516;49.456;2022-07-25T02:22:17;0.85;;;0.85;;
67554;SDS011;54385;53.516;49.456;2022-07-25T02:24:44;0.82;;;0.82;;
67554;SDS011;54385;53.516;49.456;2022-07-25T02:27:10;0.93;;;0.93;;
67554;SDS011;54385;53.516;49.456;2022-07-25T02:29:36;0.77;;;0.77;;
67554;SDS011;54385;53.516;49.456;2022-07-25T02:32:03;0.85;;;0.85;;
67554;SDS011;54385;53.516;49.456;2022-07-25T02:34:30;0.82;;;0.82;;
67554;SDS011;54385;53.516;49.456;2022-07-25T02:36:56;0.77;;;0.77;;
67554;SDS011;54385;53.516;49.456;2022-07-25T02:39:22;0.85;;;0.85;;
67554;SDS011;54385;53.516;49.456;2022-07-25T02:41:49;0.88;;;0.88;;
67554;SDS011;54385;53.516;49.456;2022-07-25T02:44:16;0.82;;;0.82;;
67554;SDS011;54385;53.516;49.456;2022-07-25T02:46:42;0.82;;;0.82;;
67554;SDS011;54385;53.516;49.456;2022-07-25T02:49:08;0.82;;;0.82;;
67554;SDS011;54385;53.516;49.456;2022-07-25T02:51:35;0.88;;;0.88;;
67554;SDS011;54385;53.516;49.456;2022-07-25T02:54:01;0.85;;;0.85;;
67554;SDS011;54385;53.516;49.456;2022-07-25T02:56:28;0.85;;;0.85;;
67554;SDS011;54385;53.516;49.456;2022-07-25T02:58:54;0.93;;;0.93;;
67554;SDS011;54385;53.516;49.456;2022-07-25T03:01:20;0.98;;;0.98;;
67554;SDS011;54385;53.516;49.456;2022-07-25T03:03:47;0.90;;;0.90;;
67554;SDS011;54385;53.516;49.456;2022-07-25T03:06:14;0.95;;;0.95;;
67554;SDS011;54385;53.516;49.456;2022-07-25T03:08:40;0.93;;;0.93;;
67554;SDS011;54385;53.516;49.456;2022-07-25T03:11:07;0.88;;;0.88;;
67554;SDS011;54385;53.516;49.456;2022-07-25T03:13:33;0.88;;;0.88;;
67554;SDS011;54385;53.516;49.456;2022-07-25T03:16:00;1.02;;;1.02;;
67554;SDS011;54385;53.516;49.456;2022-07-25T03:18:26;0.88;;;0.88;;
67554;SDS011;54385;53.516;49.456;2022-07-25T03:20:52;0.95;;;0.95;;
67554;SDS011;54385;53.516;49.456;2022-07-25T03:23:19;0.88;;;0.88;;
67554;SDS011;54385;53.516;49.456;2022-07-25T03:25:46;0.88;;;0.88;;
67554;SDS011;54385;53.516;49.456;2022-07-25T03:28:12;0.93;;;0.93;;
67554;SDS011;54385;53.516;49.456;2022-07-25T03:30:38;0.88;;;0.88;;
67554;SDS011;54385;53.516;49.456;2022-07-25T03:33:05;0.93;;;0.93;;
67554;SDS011;54385;53.516;49.456;2022-07-25T03:35:31;1.02;;;1.02;;
67554;SDS011;54385;53.516;49.456;2022-07-25T03:37:58;0.93;;;0.93;;
67554;SDS011;54385;53.516;49.456;2022-07-25T03:40:24;1.00;;;1.00;;
67554;SDS011;54385;53.516;49.456;2022-07-25T03:42:51;0.95;;;0.95;;
67554;SDS011;54385;53.516;49.456;2022-07-25T03:45:17;0.95;;;0.95;;
67554;SDS011;54385;53.516;49.456;2022-07-25T03:47:44;1.02;;;1.02;;
67554;SDS011;54385;53.516;49.456;2022-07-25T03:50:10;1.02;;;1.02;;
67554;SDS011;54385;53.516;49.456;2022-07-25T03:52:40;1.00;;;1.00;;
67554;SDS011;54385;53.516;49.456;2022-07-25T03:55:07;2.58;;;2.47;;
67554;SDS011;54385;53.516;49.456;2022-07-25T03:57:35;1.08;;;1.08;;
67554;SDS011;54385;53.516;49.456;2022-07-25T04:00:04;1.13;;;1.13;;
67554;SDS011;54385;53.516;49.456;2022-07-25T04:02:32;2.67;;;2.58;;
67554;SDS011;54385;53.516;49.456;2022-07-25T04:04:59;1.13;;;1.13;;
67554;SDS011;54385;53.516;49.456;2022-07-25T04:07:25;1.13;;;1.13;;
67554;SDS011;54385;53.516;49.456;2022-07-25T04:09:52;1.17;;;1.17;;
67554;SDS011;54385;53.516;49.456;2022-07-25T04:12:25;1.20;;;1.20;;
67554;SDS011;54385;53.516;49.456;2022-07-25T04:14:53;1.30;;;1.30;;
67554;SDS011;54385;53.516;49.456;2022-07-25T04:17:22;1.20;;;1.20;;
67554;SDS011;54385;53.516;49.456;2022-07-25T04:20:00;1.17;;;1.17;;
67554;SDS011;54385;53.516;49.456;2022-07-25T04:22:26;1.15;;;1.15;;
67554;SDS011;54385;53.516;49.456;2022-07-25T04:24:52;1.15;;;1.15;;
67554;SDS011;54385;53.516;49.456;2022-07-25T04:27:19;1.25;;;1.25;;
67554;SDS011;54385;53.516;49.456;2022-07-25T04:29:45;1.17;;;1.17;;
67554;SDS011;54385;53.516;49.456;2022-07-25T04:32:12;1.13;;;1.13;;
67554;SDS011;54385;53.516;49.456;2022-07-25T04:34:39;1.15;;;1.15;;
67554;SDS011;54385;53.516;49.456;2022-07-25T04:39:35;1.23;;;1.23;;
67554;SDS011;54385;53.516;49.456;2022-07-25T04:42:05;2.90;;;2.80;;
67554;SDS011;54385;53.516;49.456;2022-07-25T04:44:31;1.15;;;1.15;;
67554;SDS011;54385;53.516;49.456;2022-07-25T04:46:58;1.13;;;1.13;;
67554;SDS011;54385;53.516;49.456;2022-07-25T04:49:25;1.25;;;1.25;;
67554;SDS011;54385;53.516;49.456;2022-07-25T04:51:52;1.25;;;1.25;;
67554;SDS011;54385;53.516;49.456;2022-07-25T04:57:08;1.23;;;1.23;;
67554;SDS011;54385;53.516;49.456;2022-07-25T04:59:35;1.27;;;1.27;;
67554;SDS011;54385;53.516;49.456;2022-07-25T05:02:02;1.27;;;1.27;;
67554;SDS011;54385;53.516;49.456;2022-07-25T05:04:28;1.25;;;1.25;;
67554;SDS011;54385;53.516;49.456;2022-07-25T05:06:58;1.25;;;1.25;;
67554;SDS011;54385;53.516;49.456;2022-07-25T05:09:25;2.90;;;2.80;;
67554;SDS011;54385;53.516;49.456;2022-07-25T05:11:52;1.23;;;1.23;;
67554;SDS011;54385;53.516;49.456;2022-07-25T05:14:19;1.27;;;1.27;;
67554;SDS011;54385;53.516;49.456;2022-07-25T05:16:45;1.33;;;1.33;;
67554;SDS011;54385;53.516;49.456;2022-07-25T05:19:12;1.25;;;1.25;;
67554;SDS011;54385;53.516;49.456;2022-07-25T05:21:39;1.30;;;1.30;;
67554;SDS011;54385;53.516;49.456;2022-07-25T05:24:12;1.20;;;1.20;;
67554;SDS011;54385;53.516;49.456;2022-07-25T05:26:39;2.83;;;2.72;;
67554;SDS011;54385;53.516;49.456;2022-07-25T05:29:07;1.23;;;1.23;;
67554;SDS011;54385;53.516;49.456;2022-07-25T05:31:37;2.25;;;2.15;;
67554;SDS011;54385;53.516;49.456;2022-07-25T05:34:04;1.23;;;1.23;;
67554;SDS011;54385;53.516;49.456;2022-07-25T05:36:31;1.27;;;1.27;;
67554;SDS011;54385;53.516;49.456;2022-07-25T05:38:58;1.30;;;1.30;;
67554;SDS011;54385;53.516;49.456;2022-07-25T05:41:28;1.33;;;1.33;;
67554;SDS011;54385;53.516;49.456;2022-07-25T05:43:55;1.30;;;1.30;;
67554;SDS011;54385;53.516;49.456;2022-07-25T05:46:24;1.42;;;1.42;;
67554;SDS011;54385;53.516;49.456;2022-07-25T05:51:44;1.40;;;1.40;;
67554;SDS011;54385;53.516;49.456;2022-07-25T05:54:11;1.27;;;1.27;;
67554;SDS011;54385;53.516;49.456;2022-07-25T05:56:39;1.35;;;1.35;;
67554;SDS011;54385;53.516;49.456;2022-07-25T05:59:06;1.33;;;1.33;;
67554;SDS011;54385;53.516;49.456;2022-07-25T06:01:33;1.40;;;1.40;;
67554;SDS011;54385;53.516;49.456;2022-07-25T06:04:00;1.42;;;1.42;;
67554;SDS011;54385;53.516;49.456;2022-07-25T06:06:26;1.38;;;1.38;;
67554;SDS011;54385;53.516;49.456;2022-07-25T06:08:57;1.40;;;1.40;;
67554;SDS011;54385;53.516;49.456;2022-07-25T06:11:24;1.42;;;1.42;;
67554;SDS011;54385;53.516;49.456;2022-07-25T06:13:55;1.45;;;1.45;;
67554;SDS011;54385;53.516;49.456;2022-07-25T06:16:24;1.40;;;1.40;;
67554;SDS011;54385;53.516;49.456;2022-07-25T06:18:52;1.50;;;1.50;;
67554;SDS011;54385;53.516;49.456;2022-07-25T06:21:19;1.45;;;1.45;;
67554;SDS011;54385;53.516;49.456;2022-07-25T06:23:45;1.55;;;1.55;;
67554;SDS011;54385;53.516;49.456;2022-07-25T06:26:13;1.60;;;1.60;;
67554;SDS011;54385;53.516;49.456;2022-07-25T06:28:41;1.50;;;1.50;;
67554;SDS011;54385;53.516;49.456;2022-07-25T06:31:07;1.55;;;1.55;;
67554;SDS011;54385;53.516;49.456;2022-07-25T06:33:36;1.45;;;1.45;;
67554;SDS011;54385;53.516;49.456;2022-07-25T06:36:05;1.55;;;1.55;;
67554;SDS011;54385;53.516;49.456;2022-07-25T06:38:32;1.65;;;1.65;;
67554;SDS011;54385;53.516;49.456;2022-07-25T06:41:02;3.25;;;3.15;;
67554;SDS011;54385;53.516;49.456;2022-07-25T06:43:29;1.73;;;1.73;;
67554;SDS011;54385;53.516;49.456;2022-07-25T06:45:57;1.65;;;1.65;;
67554;SDS011;54385;53.516;49.456;2022-07-25T06:48:38;1.67;;;1.67;;
67554;SDS011;54385;53.516;49.456;2022-07-25T06:51:16;1.77;;;1.75;;
67554;SDS011;54385;53.516;49.456;2022-07-25T06:53:42;2.05;;;1.95;;
67554;SDS011;54385;53.516;49.456;2022-07-25T06:56:15;1.95;;;1.85;;
67554;SDS011;54385;53.516;49.456;2022-07-25T06:58:44;1.73;;;1.73;;
67554;SDS011;54385;53.516;49.456;2022-07-25T07:01:13;1.98;;;1.88;;
67554;SDS011;54385;53.516;49.456;2022-07-25T07:03:41;2.03;;;1.92;;
67554;SDS011;54385;53.516;49.456;2022-07-25T07:06:11;2.08;;;1.98;;
67554;SDS011;54385;53.516;49.456;2022-07-25T07:08:37;3.67;;;3.55;;
67554;SDS011;54385;53.516;49.456;2022-07-25T07:11:05;1.95;;;1.85;;
67554;SDS011;54385;53.516;49.456;2022-07-25T07:13:32;2.10;;;2.00;;
67554;SDS011;54385;53.516;49.456;2022-07-25T07:16:00;2.20;;;2.10;;
67554;SDS011;54385;53.516;49.456;2022-07-25T07:18:27;2.25;;;2.15;;
67554;SDS011;54385;53.516;49.456;2022-07-25T07:20:53;2.17;;;2.08;;
67554;SDS011;54385;53.516;49.456;2022-07-25T07:23:20;2.35;;;2.25;;
67554;SDS011;54385;53.516;49.456;2022-07-25T07:28:46;2.38;;;2.28;;
67554;SDS011;54385;53.516;49.456;2022-07-25T07:31:19;2.28;;;2.17;;
67554;SDS011;54385;53.516;49.456;2022-07-25T07:33:50;2.40;;;2.30;;
67554;SDS011;54385;53.516;49.456;2022-07-25T07:36:19;2.42;;;2.33;;
67554;SDS011;54385;53.516;49.456;2022-07-25T07:38:50;4.32;;;4.13;;
67554;SDS011;54385;53.516;49.456;2022-07-25T07:41:20;2.40;;;2.30;;
67554;SDS011;54385;53.516;49.456;2022-07-25T07:43:47;2.33;;;2.22;;
67554;SDS011;54385;53.516;49.456;2022-07-25T07:46:28;2.55;;;2.45;;
67554;SDS011;54385;53.516;49.456;2022-07-25T07:48:55;2.30;;;2.20;;
67554;SDS011;54385;53.516;49.456;2022-07-25T07:51:21;2.40;;;2.30;;
67554;SDS011;54385;53.516;49.456;2022-07-25T07:53:49;2.50;;;2.40;;
67554;SDS011;54385;53.516;49.456;2022-07-25T07:56:34;2.28;;;2.17;;
67554;SDS011;54385;53.516;49.456;2022-07-25T07:59:00;2.50;;;2.40;;
67554;SDS011;54385;53.516;49.456;2022-07-25T08:01:27;2.42;;;2.33;;
67554;SDS011;54385;53.516;49.456;2022-07-25T08:03:53;2.55;;;2.45;;
67554;SDS011;54385;53.516;49.456;2022-07-25T08:06:19;2.40;;;2.30;;
67554;SDS011;54385;53.516;49.456;2022-07-25T08:08:46;2.50;;;2.40;;
67554;SDS011;54385;53.516;49.456;2022-07-25T08:11:13;2.72;;;2.63;;
67554;SDS011;54385;53.516;49.456;2022-07-25T08:13:39;2.78;;;2.67;;
67554;SDS011;54385;53.516;49.456;2022-07-25T08:16:06;2.65;;;2.55;;
67554;SDS011;54385;53.516;49.456;2022-07-25T08:18:33;2.85;;;2.75;;
67554;SDS011;54385;53.516;49.456;2022-07-25T08:21:00;2.83;;;2.72;;
67554;SDS011;54385;53.516;49.456;2022-07-25T08:23:33;3.05;;;2.95;;
67554;SDS011;54385;53.516;49.456;2022-07-25T08:26:03;2.90;;;2.80;;
67554;SDS011;54385;53.516;49.456;2022-07-25T08:28:30;3.30;;;3.20;;
67554;SDS011;54385;53.516;49.456;2022-07-25T08:30:57;3.35;;;3.25;;
67554;SDS011;54385;53.516;49.456;2022-07-25T08:33:23;3.20;;;3.10;;
67554;SDS011;54385;53.516;49.456;2022-07-25T08:35:54;3.15;;;3.05;;
67554;SDS011;54385;53.516;49.456;2022-07-25T08:38:23;4.97;;;4.78;;
67554;SDS011;54385;53.516;49.456;2022-07-25T08:40:58;3.20;;;3.10;;
67554;SDS011;54385;53.516;49.456;2022-07-25T08:43:27;5.00;;;4.80;;
67554;SDS011;54385;53.516;49.456;2022-07-25T08:45:58;3.40;;;3.30;;
67554;SDS011;54385;53.516;49.456;2022-07-25T08:48:25;3.47;;;3.38;;
67554;SDS011;54385;53.516;49.456;2022-07-25T08:50:54;5.25;;;5.05;;
67554;SDS011;54385;53.516;49.456;2022-07-25T08:53:24;4.50;;;4.30;;
67554;SDS011;54385;53.516;49.456;2022-07-25T08:55:52;3.53;;;3.42;;
67554;SDS011;54385;53.516;49.456;2022-07-25T08:58:21;3.60;;;3.50;;
67554;SDS011;54385;53.516;49.456;2022-07-25T09:00:52;3.70;;;3.60;;
67554;SDS011;54385;53.516;49.456;2022-07-25T09:03:22;3.67;;;3.58;;
67554;SDS011;54385;53.516;49.456;2022-07-25T09:05:51;3.72;;;3.63;;
67554;SDS011;54385;53.516;49.456;2022-07-25T09:08:28;4.07;;;3.90;;
67554;SDS011;54385;53.516;49.456;2022-07-25T09:10:56;3.92;;;3.80;;
67554;SDS011;54385;53.516;49.456;2022-07-25T09:13:34;4.22;;;4.03;;
67554;SDS011;54385;53.516;49.456;2022-07-25T09:16:44;3.90;;;3.80;;
67554;SDS011;54385;53.516;49.456;2022-07-25T09:19:15;4.20;;;4.00;;
67554;SDS011;54385;53.516;49.456;2022-07-25T09:21:58;4.13;;;3.92;;
67554;SDS011;54385;53.516;49.456;2022-07-25T09:24:34;4.20;;;4.00;;
67554;SDS011;54385;53.516;49.456;2022-07-25T09:28:26;4.35;;;4.15;;
67554;SDS011;54385;53.516;49.456;2022-07-25T09:30:59;4.55;;;4.35;;
67554;SDS011;54385;53.516;49.456;2022-07-25T09:33:53;4.55;;;4.35;;
67554;SDS011;54385;53.516;49.456;2022-07-25T09:36:32;4.63;;;4.43;;
67554;SDS011;54385;53.516;49.456;2022-07-25T09:39:00;4.35;;;4.15;;
67554;SDS011;54385;53.516;49.456;2022-07-25T09:41:36;5.70;;;5.50;;
67554;SDS011;54385;53.516;49.456;2022-07-25T09:44:14;4.50;;;4.30;;
67554;SDS011;54385;53.516;49.456;2022-07-25T09:46:42;4.43;;;4.22;;
67554;SDS011;54385;53.516;49.456;2022-07-25T09:49:17;5.32;;;5.13;;
67554;SDS011;54385;53.516;49.456;2022-07-25T09:51:47;5.65;;;5.45;;
67554;SDS011;54385;53.516;49.456;2022-07-25T09:54:15;4.85;;;4.65;;
67554;SDS011;54385;53.516;49.456;2022-07-25T09:56:42;5.47;;;5.28;;
67554;SDS011;54385;53.516;49.456;2022-07-25T09:59:09;5.40;;;5.20;;
67554;SDS011;54385;53.516;49.456;2022-07-25T10:01:46;6.80;;;6.50;;
67554;SDS011;54385;53.516;49.456;2022-07-25T10:04:25;8.65;;;8.25;;
67554;SDS011;54385;53.516;49.456;2022-07-25T10:09:47;7.15;;;6.85;;
67554;SDS011;54385;53.516;49.456;2022-07-25T10:12:20;7.25;;;6.95;;
67554;SDS011;54385;53.516;49.456;2022-07-25T10:17:36;7.00;;;6.70;;
67554;SDS011;54385;53.516;49.456;2022-07-25T10:20:05;8.30;;;7.90;;
67554;SDS011;54385;53.516;49.456;2022-07-25T10:22:43;6.10;;;5.80;;
67554;SDS011;54385;53.516;49.456;2022-07-25T10:25:20;7.50;;;7.20;;
67554;SDS011;54385;53.516;49.456;2022-07-25T10:27:58;7.22;;;6.93;;
67554;SDS011;54385;53.516;49.456;2022-07-25T10:30:37;6.60;;;6.30;;
67554;SDS011;54385;53.516;49.456;2022-07-25T10:35:42;6.18;;;5.88;;
67554;SDS011;54385;53.516;49.456;2022-07-25T10:38:11;6.22;;;5.93;;
67554;SDS011;54385;53.516;49.456;2022-07-25T10:40:47;4.88;;;4.68;;
67554;SDS011;54385;53.516;49.456;2022-07-25T10:43:18;4.65;;;4.45;;
67554;SDS011;54385;53.516;49.456;2022-07-25T10:45:54;5.18;;;4.97;;
67554;SDS011;54385;53.516;49.456;2022-07-25T10:48:27;3.67;;;3.58;;
67554;SDS011;54385;53.516;49.456;2022-07-25T10:51:02;3.55;;;3.45;;
67554;SDS011;54385;53.516;49.456;2022-07-25T10:53:37;3.63;;;3.53;;
67554;SDS011;54385;53.516;49.456;2022-07-25T10:56:11;3.75;;;3.65;;
67554;SDS011;54385;53.516;49.456;2022-07-25T11:01:33;3.15;;;3.05;;
67554;SDS011;54385;53.516;49.456;2022-07-25T11:04:04;3.10;;;3.00;;
67554;SDS011;54385;53.516;49.456;2022-07-25T11:06:43;2.88;;;2.78;;
67554;SDS011;54385;53.516;49.456;2022-07-25T11:11:48;2.55;;;2.45;;
67554;SDS011;54385;53.516;49.456;2022-07-25T11:14:17;2.60;;;2.50;;
67554;SDS011;54385;53.516;49.456;2022-07-25T11:16:44;2.63;;;2.53;;
67554;SDS011;54385;53.516;49.456;2022-07-25T11:19:17;4.15;;;3.97;;
67554;SDS011;54385;53.516;49.456;2022-07-25T11:21:50;2.45;;;2.35;;
67554;SDS011;54385;53.516;49.456;2022-07-25T11:24:18;2.40;;;2.30;;
67554;SDS011;54385;53.516;49.456;2022-07-25T11:26:45;2.35;;;2.25;;
67554;SDS011;54385;53.516;49.456;2022-07-25T11:29:20;2.17;;;2.08;;
67554;SDS011;54385;53.516;49.456;2022-07-25T11:31:53;3.88;;;3.72;;
67554;SDS011;54385;53.516;49.456;2022-07-25T11:34:29;2.05;;;1.95;;
67554;SDS011;54385;53.516;49.456;2022-07-25T11:36:57;3.50;;;3.40;;
67554;SDS011;54385;53.516;49.456;2022-07-25T11:39:27;3.30;;;3.20;;
67554;SDS011;54385;53.516;49.456;2022-07-25T11:42:08;1.63;;;1.63;;
67554;SDS011;54385;53.516;49.456;2022-07-25T11:44:40;1.52;;;1.52;;
67554;SDS011;54385;53.516;49.456;2022-07-25T11:47:19;1.65;;;1.65;;
67554;SDS011;54385;53.516;49.456;2022-07-25T11:49:51;1.45;;;1.45;;
67554;SDS011;54385;53.516;49.456;2022-07-25T11:57:39;1.42;;;1.42;;
67554;SDS011;54385;53.516;49.456;2022-07-25T12:00:18;1.45;;;1.45;;
67554;SDS011;54385;53.516;49.456;2022-07-25T12:02:46;1.45;;;1.45;;
67554;SDS011;54385;53.516;49.456;2022-07-25T12:05:15;1.23;;;1.23;;
67554;SDS011;54385;53.516;49.456;2022-07-25T12:10:16;1.27;;;1.27;;
67554;SDS011;54385;53.516;49.456;2022-07-25T12:15:11;1.23;;;1.23;;
67554;SDS011;54385;53.516;49.456;2022-07-25T12:17:41;1.17;;;1.17;;
67554;SDS011;54385;53.516;49.456;2022-07-25T12:20:17;1.13;;;1.13;;
67554;SDS011;54385;53.516;49.456;2022-07-25T12:22:45;1.23;;;1.23;;
67554;SDS011;54385;53.516;49.456;2022-07-25T12:25:12;1.17;;;1.17;;
67554;SDS011;54385;53.516;49.456;2022-07-25T12:27:40;1.17;;;1.17;;
67554;SDS011;54385;53.516;49.456;2022-07-25T12:30:07;1.20;;;1.20;;
67554;SDS011;54385;53.516;49.456;2022-07-25T12:32:34;1.17;;;1.17;;
67554;SDS011;54385;53.516;49.456;2022-07-25T12:35:04;1.23;;;1.23;;
67554;SDS011;54385;53.516;49.456;2022-07-25T12:37:31;1.10;;;1.10;;
67554;SDS011;54385;53.516;49.456;2022-07-25T12:39:58;1.13;;;1.13;;
67554;SDS011;54385;53.516;49.456;2022-07-25T12:42:25;1.13;;;1.13;;
67554;SDS011;54385;53.516;49.456;2022-07-25T12:44:53;1.15;;;1.15;;
67554;SDS011;54385;53.516;49.456;2022-07-25T12:47:21;1.13;;;1.13;;
67554;SDS011;54385;53.516;49.456;2022-07-25T12:49:48;1.13;;;1.13;;
67554;SDS011;54385;53.516;49.456;2022-07-25T12:52:15;1.13;;;1.13;;
67554;SDS011;54385;53.516;49.456;2022-07-25T12:54:42;1.08;;;1.08;;
67554;SDS011;54385;53.516;49.456;2022-07-25T12:57:10;1.23;;;1.23;;
67554;SDS011;54385;53.516;49.456;2022-07-25T12:59:37;1.15;;;1.15;;
67554;SDS011;54385;53.516;49.456;2022-07-25T13:02:03;1.15;;;1.15;;
67554;SDS011;54385;53.516;49.456;2022-07-25T13:04:30;1.25;;;1.25;;
67554;SDS011;54385;53.516;49.456;2022-07-25T13:06:57;1.23;;;1.23;;
67554;SDS011;54385;53.516;49.456;2022-07-25T13:09:24;1.15;;;1.15;;
67554;SDS011;54385;53.516;49.456;2022-07-25T13:11:51;1.25;;;1.25;;
67554;SDS011;54385;53.516;49.456;2022-07-25T13:14:18;1.23;;;1.23;;
67554;SDS011;54385;53.516;49.456;2022-07-25T13:16:45;1.17;;;1.17;;
67554;SDS011;54385;53.516;49.456;2022-07-25T13:19:13;1.23;;;1.23;;
67554;SDS011;54385;53.516;49.456;2022-07-25T13:21:40;1.23;;;1.23;;
67554;SDS011;54385;53.516;49.456;2022-07-25T13:24:07;1.23;;;1.23;;
67554;SDS011;54385;53.516;49.456;2022-07-25T13:26:35;1.25;;;1.25;;
67554;SDS011;54385;53.516;49.456;2022-07-25T13:29:03;1.17;;;1.17;;
67554;SDS011;54385;53.516;49.456;2022-07-25T13:34:06;1.25;;;1.25;;
67554;SDS011;54385;53.516;49.456;2022-07-25T13:36:33;1.15;;;1.15;;
67554;SDS011;54385;53.516;49.456;2022-07-25T13:39:01;1.20;;;1.20;;
67554;SDS011;54385;53.516;49.456;2022-07-25T13:41:28;1.30;;;1.30;;
67554;SDS011;54385;53.516;49.456;2022-07-25T13:43:55;1.23;;;1.23;;
67554;SDS011;54385;53.516;49.456;2022-07-25T13:46:22;1.23;;;1.23;;
67554;SDS011;54385;53.516;49.456;2022-07-25T13:48:48;1.27;;;1.27;;
67554;SDS011;54385;53.516;49.456;2022-07-25T13:51:15;1.20;;;1.20;;
67554;SDS011;54385;53.516;49.456;2022-07-25T13:53:42;1.20;;;1.20;;
67554;SDS011;54385;53.516;49.456;2022-07-25T13:56:09;1.25;;;1.25;;
67554;SDS011;54385;53.516;49.456;2022-07-25T13:58:38;1.25;;;1.25;;
67554;SDS011;54385;53.516;49.456;2022-07-25T14:01:05;1.27;;;1.27;;
67554;SDS011;54385;53.516;49.456;2022-07-25T14:03:33;1.23;;;1.23;;
67554;SDS011;54385;53.516;49.456;2022-07-25T14:06:01;1.30;;;1.30;;
67554;SDS011;54385;53.516;49.456;2022-07-25T14:08:30;1.33;;;1.33;;
67554;SDS011;54385;53.516;49.456;2022-07-25T14:10:57;1.35;;;1.35;;
67554;SDS011;54385;53.516;49.456;2022-07-25T14:13:23;1.27;;;1.27;;
67554;SDS011;54385;53.516;49.456;2022-07-25T14:15:50;1.42;;;1.42;;
67554;SDS011;54385;53.516;49.456;2022-07-25T14:18:16;1.42;;;1.42;;
67554;SDS011;54385;53.516;49.456;2022-07-25T14:20:43;1.35;;;1.35;;
67554;SDS011;54385;53.516;49.456;2022-07-25T14:23:09;1.45;;;1.45;;
67554;SDS011;54385;53.516;49.456;2022-07-25T14:25:36;1.63;;;1.63;;
67554;SDS011;54385;53.516;49.456;2022-07-25T14:28:03;1.55;;;1.55;;
67554;SDS011;54385;53.516;49.456;2022-07-25T14:30:29;1.45;;;1.45;;
67554;SDS011;54385;53.516;49.456;2022-07-25T14:32:56;1.42;;;1.42;;
67554;SDS011;54385;53.516;49.456;2022-07-25T14:35:22;1.52;;;1.52;;
67554;SDS011;54385;53.516;49.456;2022-07-25T14:37:49;1.45;;;1.45;;
67554;SDS011;54385;53.516;49.456;2022-07-25T14:40:15;1.45;;;1.45;;
67554;SDS011;54385;53.516;49.456;2022-07-25T14:42:42;1.38;;;1.38;;
67554;SDS011;54385;53.516;49.456;2022-07-25T14:45:09;1.52;;;1.52;;
67554;SDS011;54385;53.516;49.456;2022-07-25T14:47:36;1.35;;;1.35;;
67554;SDS011;54385;53.516;49.456;2022-07-25T14:50:04;1.35;;;1.35;;
67554;SDS011;54385;53.516;49.456;2022-07-25T14:52:31;1.30;;;1.30;;
67554;SDS011;54385;53.516;49.456;2022-07-25T14:54:57;1.25;;;1.25;;
67554;SDS011;54385;53.516;49.456;2022-07-25T14:57:24;1.35;;;1.35;;
67554;SDS011;54385;53.516;49.456;2022-07-25T14:59:50;1.42;;;1.42;;
67554;SDS011;54385;53.516;49.456;2022-07-25T15:02:17;1.33;;;1.33;;
67554;SDS011;54385;53.516;49.456;2022-07-25T15:04:44;1.40;;;1.40;;
67554;SDS011;54385;53.516;49.456;2022-07-25T15:07:10;1.33;;;1.33;;
67554;SDS011;54385;53.516;49.456;2022-07-25T15:09:37;1.38;;;1.38;;
67554;SDS011;54385;53.516;49.456;2022-07-25T15:12:03;1.40;;;1.40;;
67554;SDS011;54385;53.516;49.456;2022-07-25T15:14:30;1.25;;;1.25;;
67554;SDS011;54385;53.516;49.456;2022-07-25T15:16:59;2.90;;;2.80;;
67554;SDS011;54385;53.516;49.456;2022-07-25T15:19:25;1.25;;;1.25;;